Time;durP1;ratioP1;P1;durP2;ratioP2;P2;SDS_P1;SDS_P2;PMS_P1;PMS_P2;Temp;Humidity;BMP_temperature;BMP_pressure;BME280_temperature;BME280_humidity;BME280_pressure;Samples;Min_cycle;Max_cycle;Signal;HPM_P1;HPM_P2
2022/05/17 00:02:12;;;;;;;7.40;4.93;;;;;;;25.31;54.94;101356.13;5092666;28;20036;-73
2022/05/17 00:04:39;;;;;;;4.78;4.10;;;;;;;25.31;55.12;101352.56;5092697;28;20044;-73
2022/05/17 00:07:07;;;;;;;5.75;4.32;;;;;;;25.30;55.10;101340.88;5093547;28;20040;-74
2022/05/17 00:09:34;;;;;;;5.80;4.60;;;;;;;25.30;55.22;101346.31;5112512;28;20399;-73
2022/05/17 00:12:03;;;;;;;6.43;4.63;;;;;;;25.30;55.21;101342.75;5112958;28;20403;-73
2022/05/17 00:14:32;;;;;;;5.90;4.18;;;;;;;25.30;55.40;101346.31;5112842;28;20043;-73
2022/05/17 00:17:00;;;;;;;5.18;4.30;;;;;;;25.31;55.26;101341.75;5112977;28;20043;-73
2022/05/17 00:19:29;;;;;;;9.32;4.60;;;;;;;25.29;55.29;101339.19;5112742;28;20406;-73
2022/05/17 00:21:56;;;;;;;6.07;4.28;;;;;;;25.30;55.55;101340.03;5094940;28;20479;-73
2022/05/17 00:24:25;;;;;;;5.18;4.68;;;;;;;25.31;55.34;101344.44;5113118;28;20043;-73
2022/05/17 00:26:53;;;;;;;4.78;4.38;;;;;;;25.30;55.38;101337.34;5112771;28;20044;-73
2022/05/17 00:29:20;;;;;;;8.30;5.00;;;;;;;25.29;55.36;101341.91;5112594;28;20047;-73
2022/05/17 00:31:48;;;;;;;5.82;4.53;;;;;;;25.30;55.38;101342.75;5112973;28;20443;-72
2022/05/17 00:34:16;;;;;;;6.25;5.00;;;;;;;25.30;55.48;101340.03;5112733;28;20391;-73
2022/05/17 00:36:43;;;;;;;7.63;4.72;;;;;;;25.30;55.41;101334.63;5112451;28;20067;-73
2022/05/17 00:39:10;;;;;;;6.32;4.55;;;;;;;25.30;55.43;101331.91;5112938;28;20048;-73
2022/05/17 00:41:38;;;;;;;6.03;4.88;;;;;;;25.29;55.46;101328.34;5112845;28;20040;-73
2022/05/17 00:47:08;;;;;;;5.75;4.40;;;;;;;25.28;55.75;101329.38;5116720;28;20431;-73
2022/05/17 00:49:49;;;;;;;6.93;4.45;;;;;;;25.29;55.71;101330.22;5116581;28;20395;-73
2022/05/17 00:52:45;;;;;;;4.65;4.22;;;;;;;25.29;55.47;101333.78;5116260;28;20070;-73
2022/05/17 00:55:22;;;;;;;5.60;4.32;;;;;;;25.29;55.74;101322.09;5109507;28;20553;-73
2022/05/17 00:57:56;;;;;;;6.03;4.70;;;;;;;25.30;55.57;101323.78;5116658;28;20513;-74
2022/05/17 01:00:25;;;;;;;5.53;4.53;;;;;;;25.29;55.60;101322.09;5115026;28;20533;-74
2022/05/17 01:02:59;;;;;;;7.00;4.07;;;;;;;25.29;55.82;101317.53;5114762;28;20039;-74
2022/05/17 01:05:31;;;;;;;6.25;4.68;;;;;;;25.30;55.98;101319.22;5116467;28;20044;-74
2022/05/17 01:07:59;;;;;;;5.73;4.43;;;;;;;25.28;55.70;101318.53;5113929;28;20422;-73
2022/05/17 01:10:29;;;;;;;5.97;4.50;;;;;;;25.29;55.91;101322.94;5114827;28;20280;-73
2022/05/17 01:15:45;;;;;;;5.38;4.57;;;;;;;25.29;55.90;101322.09;5115820;28;20410;-73
2022/05/17 01:18:13;;;;;;;6.15;4.55;;;;;;;25.29;55.88;101317.53;5115650;28;20051;-73
2022/05/17 01:20:40;;;;;;;5.68;4.38;;;;;;;25.29;56.13;101316.66;5115810;28;20478;-73
2022/05/17 01:23:08;;;;;;;7.18;5.50;;;;;;;25.30;56.16;101318.38;5115909;28;20401;-73
2022/05/17 01:25:35;;;;;;;5.63;5.03;;;;;;;25.29;56.03;101312.09;5115551;28;20048;-73
2022/05/17 01:28:14;;;;;;;6.00;4.60;;;;;;;25.29;56.36;101312.09;5115903;28;20040;-73
2022/05/17 01:30:41;;;;;;;6.05;4.35;;;;;;;25.29;55.90;101309.38;5115499;28;20048;-73
2022/05/17 01:33:17;;;;;;;4.75;4.20;;;;;;;25.29;56.02;101309.38;5115327;28;20039;-73
2022/05/17 01:35:45;;;;;;;4.95;4.45;;;;;;;25.30;56.18;101307.53;5115786;28;20406;-73
2022/05/17 01:38:13;;;;;;;5.82;4.55;;;;;;;25.29;56.03;101301.25;5115409;28;20047;-73
2022/05/17 01:40:41;;;;;;;5.60;4.25;;;;;;;25.30;56.10;101307.53;5115210;28;20039;-73
2022/05/17 01:43:08;;;;;;;5.65;5.07;;;;;;;25.29;56.09;101305.84;5115048;28;20035;-73
2022/05/17 01:45:36;;;;;;;7.18;4.93;;;;;;;25.29;56.10;101312.09;5115453;28;20043;-73
2022/05/17 01:48:04;;;;;;;6.30;4.95;;;;;;;25.29;56.05;101305.84;5114773;28;20101;-73
2022/05/17 01:50:31;;;;;;;5.10;4.60;;;;;;;25.30;56.16;101299.41;5115271;28;20048;-73
2022/05/17 01:52:59;;;;;;;5.45;4.85;;;;;;;25.29;56.28;101301.25;5114305;28;20043;-73
2022/05/17 01:55:26;;;;;;;5.93;4.60;;;;;;;25.28;56.14;101291.44;5114969;28;20043;-73
2022/05/17 01:57:54;;;;;;;4.78;4.25;;;;;;;25.28;56.15;101287.84;5114830;28;20063;-73
2022/05/17 02:00:23;;;;;;;5.03;4.53;;;;;;;25.29;56.16;101295.00;5115294;28;20054;-73
2022/05/17 02:02:51;;;;;;;7.10;4.50;;;;;;;25.29;56.01;101295.00;5114995;28;20040;-73
2022/05/17 02:05:21;;;;;;;4.53;4.13;;;;;;;25.29;55.83;101295.00;5113501;28;20398;-73
2022/05/17 02:07:50;;;;;;;5.00;4.50;;;;;;;25.28;55.84;101299.56;5115046;28;20406;-73
2022/05/17 02:10:19;;;;;;;5.55;4.80;;;;;;;25.28;56.10;101295.97;5113821;28;20051;-73
2022/05/17 02:12:46;;;;;;;5.20;4.50;;;;;;;25.28;56.00;101293.25;5114147;28;20047;-73
2022/05/17 02:15:14;;;;;;;6.50;4.60;;;;;;;25.28;55.99;101291.44;5114852;28;20399;-72
2022/05/17 02:17:42;;;;;;;8.48;5.03;;;;;;;25.28;55.91;101287.84;5114582;28;20039;-73
2022/05/17 02:20:12;;;;;;;5.38;4.28;;;;;;;25.27;55.91;101281.59;5114357;28;20070;-73
2022/05/17 02:22:39;;;;;;;7.80;4.80;;;;;;;25.29;55.92;101295.00;5113799;28;20036;-73
2022/05/17 02:25:08;;;;;;;5.82;4.43;;;;;;;25.28;55.81;101291.44;5114241;28;20043;-73
2022/05/17 02:27:37;;;;;;;6.40;4.30;;;;;;;25.27;55.94;101286.16;5114180;28;20427;-73
2022/05/17 02:30:06;;;;;;;5.00;4.50;;;;;;;25.27;55.66;101288.88;5114505;28;20497;-72
2022/05/17 02:32:34;;;;;;;10.13;4.80;;;;;;;25.26;55.72;101288.03;5114143;28;20418;-72
2022/05/17 02:35:02;;;;;;;7.32;5.03;;;;;;;25.26;55.75;101292.59;5113917;28;20058;-73
2022/05/17 02:37:30;;;;;;;5.63;4.18;;;;;;;25.26;55.22;101287.19;5113076;28;20043;-73
2022/05/17 02:39:57;;;;;;;7.95;4.82;;;;;;;25.26;55.31;101289.88;5112179;28;20054;-73
2022/05/17 02:42:24;;;;;;;7.43;4.72;;;;;;;25.27;55.44;101288.88;5113046;28;20446;-74
2022/05/17 02:44:52;;;;;;;11.50;5.30;;;;;;;25.25;55.17;101291.75;5114350;28;20051;-72
2022/05/17 02:47:19;;;;;;;5.88;5.07;;;;;;;25.26;55.47;101289.88;5114402;28;20058;-73
2022/05/17 02:49:46;;;;;;;5.28;4.70;;;;;;;25.26;55.16;101288.03;5114166;28;20043;-73
2022/05/17 02:52:14;;;;;;;6.78;4.40;;;;;;;25.26;55.22;101292.59;5113847;28;20039;-74
2022/05/17 02:54:42;;;;;;;9.75;5.10;;;;;;;25.25;55.33;101291.75;5112874;28;20047;-73
2022/05/17 02:57:09;;;;;;;7.28;4.65;;;;;;;25.25;55.39;101294.47;5113836;28;20047;-73
2022/05/17 02:59:36;;;;;;;6.45;4.85;;;;;;;25.24;55.52;101305.44;5114006;28;20047;-73
2022/05/17 03:02:04;;;;;;;5.05;4.43;;;;;;;25.23;55.34;101293.75;5114091;28;20051;-73
2022/05/17 03:04:31;;;;;;;5.43;4.57;;;;;;;25.22;55.30;101305.59;5113728;28;20046;-74
2022/05/17 03:06:59;;;;;;;5.65;4.40;;;;;;;25.22;54.96;101307.47;5113253;28;20048;-74
2022/05/17 03:09:26;;;;;;;5.18;3.88;;;;;;;25.22;54.99;101299.34;5112886;28;20047;-74
2022/05/17 03:11:53;;;;;;;7.45;4.72;;;;;;;25.21;54.72;101306.63;5112454;28;20043;-74
2022/05/17 03:14:22;;;;;;;8.07;4.45;;;;;;;25.21;54.55;101297.66;5097498;28;20043;-73
2022/05/17 03:16:49;;;;;;;5.00;4.50;;;;;;;25.20;54.35;101307.66;5093034;28;20055;-74
2022/05/17 03:19:18;;;;;;;6.78;4.20;;;;;;;25.20;54.44;101295.94;5092934;28;20404;-74
2022/05/17 03:21:47;;;;;;;6.88;4.65;;;;;;;25.19;54.21;101302.38;5093580;28;20056;-74
2022/05/17 03:24:14;;;;;;;6.53;4.97;;;;;;;25.18;54.33;101301.50;5092833;28;20505;-74
2022/05/17 03:27:03;;;;;;;6.15;3.72;;;;;;;25.18;54.05;101306.09;5092961;28;20048;-74
2022/05/17 03:29:30;;;;;;;4.93;4.07;;;;;;;25.17;53.71;101301.69;5092956;28;20048;-74
2022/05/17 03:31:59;;;;;;;5.18;4.20;;;;;;;25.17;53.58;101299.81;5093335;28;20044;-73
2022/05/17 03:34:27;;;;;;;7.10;4.25;;;;;;;25.17;52.68;101304.41;5102253;28;20406;-73
2022/05/17 03:36:56;;;;;;;7.53;4.70;;;;;;;25.18;53.47;101297.97;5113299;28;20051;-74
2022/05/17 03:39:23;;;;;;;5.20;3.95;;;;;;;25.17;54.01;101298.97;5111251;28;20051;-73
2022/05/17 03:41:51;;;;;;;5.70;4.38;;;;;;;25.16;53.28;101306.25;5113537;28;20046;-74
2022/05/17 03:44:18;;;;;;;5.55;4.10;;;;;;;25.14;53.09;101303.69;5112239;28;20051;-73
2022/05/17 03:46:46;;;;;;;4.70;3.90;;;;;;;25.14;53.35;101295.56;5094277;28;20388;-74
2022/05/17 03:49:13;;;;;;;6.85;4.50;;;;;;;25.15;53.14;101307.25;5112630;28;20055;-74
2022/05/17 03:51:41;;;;;;;5.50;4.07;;;;;;;25.14;52.59;101303.69;5113359;28;20478;-73
2022/05/17 03:54:09;;;;;;;4.25;3.75;;;;;;;25.13;52.71;101307.41;5113215;28;20127;-74
2022/05/17 03:56:36;;;;;;;5.63;4.57;;;;;;;25.13;52.61;101309.28;5112970;28;20044;-73
2022/05/17 03:59:04;;;;;;;6.47;3.95;;;;;;;25.13;52.65;101306.56;5113026;28;20044;-73
2022/05/17 04:01:31;;;;;;;5.07;4.35;;;;;;;25.12;52.37;101311.13;5113290;28;20055;-73
2022/05/17 04:03:58;;;;;;;7.82;3.95;;;;;;;25.12;52.15;101315.72;5111723;28;20042;-73
2022/05/17 04:06:26;;;;;;;5.80;4.05;;;;;;;25.12;52.14;101316.56;5113216;28;20059;-74
2022/05/17 04:08:53;;;;;;;5.53;4.40;;;;;;;25.12;51.69;101311.13;5094753;28;20047;-73
2022/05/17 04:11:21;;;;;;;5.72;4.13;;;;;;;25.11;52.03;101312.13;5112599;28;20036;-73
2022/05/17 04:13:48;;;;;;;4.95;3.85;;;;;;;25.10;51.85;101313.16;5096574;28;20040;-73
2022/05/17 04:16:15;;;;;;;4.57;3.67;;;;;;;25.11;51.88;101314.00;5090560;28;20526;-73
2022/05/17 04:18:43;;;;;;;6.30;3.92;;;;;;;25.10;52.09;101318.56;5093517;28;20048;-73
2022/05/17 04:21:11;;;;;;;7.25;4.05;;;;;;;25.11;51.54;101322.97;5096291;28;20048;-73
2022/05/17 04:23:38;;;;;;;5.97;3.92;;;;;;;25.10;51.39;101323.13;5096479;28;20042;-73
2022/05/17 04:26:06;;;;;;;6.65;4.00;;;;;;;25.10;51.18;101317.72;5096297;28;20051;-73
2022/05/17 04:28:33;;;;;;;5.35;4.10;;;;;;;25.09;51.09;101322.28;5096133;28;20040;-73
2022/05/17 04:31:00;;;;;;;4.90;3.95;;;;;;;25.09;51.11;101319.59;5094816;28;20055;-73
2022/05/17 04:33:28;;;;;;;5.13;3.95;;;;;;;25.09;50.44;101316.88;5097404;28;20044;-73
2022/05/17 04:35:55;;;;;;;6.50;5.15;;;;;;;25.08;50.42;101320.56;5116642;28;20048;-73
2022/05/17 04:38:23;;;;;;;5.22;3.55;;;;;;;25.08;50.67;101325.13;5116436;28;20058;-73
2022/05/17 04:40:50;;;;;;;9.15;3.72;;;;;;;25.08;50.88;101325.97;5116749;28;20047;-72
2022/05/17 04:43:18;;;;;;;7.35;4.43;;;;;;;25.09;51.36;101326.84;5116700;28;20040;-73
2022/05/17 04:45:45;;;;;;;5.00;3.83;;;;;;;25.08;51.38;101331.41;5116323;28;20403;-73
2022/05/17 04:48:13;;;;;;;5.20;3.55;;;;;;;25.08;51.35;101330.56;5116346;28;20044;-73
2022/05/17 04:50:40;;;;;;;6.00;4.03;;;;;;;25.07;51.58;101324.25;5114721;28;20051;-73
2022/05/17 04:53:08;;;;;;;5.78;3.72;;;;;;;25.08;51.48;101330.56;5116601;28;20050;-73
2022/05/17 04:55:35;;;;;;;5.50;3.60;;;;;;;25.08;52.01;101334.09;5117304;28;20043;-73
2022/05/17 04:58:03;;;;;;;4.28;3.88;;;;;;;25.07;51.80;101332.38;5117253;28;20491;-73
2022/05/17 05:00:30;;;;;;;5.82;3.80;;;;;;;25.07;51.61;101329.69;5119713;28;20048;-74
2022/05/17 05:02:58;;;;;;;4.30;3.85;;;;;;;25.08;51.40;101325.13;5119828;28;20044;-74
2022/05/17 05:05:33;;;;;;;7.18;4.57;;;;;;;25.06;50.95;101327.97;5118796;28;20035;-73
2022/05/17 05:08:00;;;;;;;9.13;4.30;;;;;;;25.07;51.40;101336.97;5116244;28;20398;-73
2022/05/17 05:10:27;;;;;;;4.95;3.80;;;;;;;25.06;51.43;101341.53;5116348;28;20052;-74
2022/05/17 05:12:55;;;;;;;6.85;4.20;;;;;;;25.06;51.42;101344.25;5115424;28;20042;-74
2022/05/17 05:15:23;;;;;;;6.60;4.05;;;;;;;25.06;51.69;101349.66;5114546;28;20028;-73
2022/05/17 05:17:50;;;;;;;15.55;4.28;;;;;;;25.05;51.43;101342.53;5114461;28;20066;-74
2022/05/17 05:20:18;;;;;;;5.38;3.95;;;;;;;25.06;51.41;101351.53;5115868;28;20044;-74
2022/05/17 05:22:45;;;;;;;5.38;3.72;;;;;;;25.05;51.38;101349.81;5115704;28;20383;-74
2022/05/17 05:25:14;;;;;;;5.82;4.15;;;;;;;25.05;51.50;101357.94;5115625;28;20055;-74
2022/05/17 05:27:42;;;;;;;5.50;3.58;;;;;;;25.05;51.63;101347.13;5115897;28;20047;-74
2022/05/17 05:30:12;;;;;;;7.38;4.00;;;;;;;25.06;51.69;101354.22;5114174;28;20161;-74
2022/05/17 05:32:40;;;;;;;5.55;4.32;;;;;;;25.04;51.77;101348.97;5115466;28;20044;-74
2022/05/17 05:35:08;;;;;;;7.13;4.05;;;;;;;25.04;51.37;101351.69;5115546;28;20038;-74
2022/05/17 05:37:37;;;;;;;5.15;3.67;;;;;;;25.03;51.58;101347.25;5115252;28;20055;-74
2022/05/17 05:40:06;;;;;;;4.70;3.90;;;;;;;25.04;51.48;101361.69;5114270;28;20048;-74
2022/05/17 05:42:34;;;;;;;6.22;3.80;;;;;;;25.04;51.64;101367.94;5115288;28;20075;-73
2022/05/17 05:45:02;;;;;;;6.05;4.10;;;;;;;25.04;52.12;101365.22;5115172;28;20055;-74
2022/05/17 05:47:30;;;;;;;6.18;4.07;;;;;;;25.04;51.95;101373.34;5115268;28;20051;-74
2022/05/17 05:49:57;;;;;;;6.30;3.75;;;;;;;25.03;51.87;101366.22;5115403;28;20047;-74
2022/05/17 05:52:25;;;;;;;6.00;3.92;;;;;;;25.03;51.63;101366.22;5115515;28;20043;-74
2022/05/17 05:54:52;;;;;;;6.57;3.72;;;;;;;25.03;51.57;101365.38;5113982;28;20055;-74
2022/05/17 05:57:23;;;;;;;5.03;3.83;;;;;;;25.03;51.60;101360.78;5115834;28;20044;-73
2022/05/17 05:59:50;;;;;;;6.50;3.88;;;;;;;25.03;51.22;101359.94;5114851;28;20488;-74
2022/05/17 06:02:19;;;;;;;5.45;4.03;;;;;;;25.03;51.46;101360.78;5114895;28;20070;-74
2022/05/17 06:04:46;;;;;;;9.95;4.50;;;;;;;25.04;51.66;101361.69;5114861;28;20051;-74
2022/05/17 06:07:14;;;;;;;6.35;4.20;;;;;;;25.04;51.30;101369.81;5114907;28;20052;-74
2022/05/17 06:09:42;;;;;;;6.70;4.28;;;;;;;25.04;51.50;101367.09;5114772;28;20043;-74
2022/05/17 06:12:10;;;;;;;7.93;4.20;;;;;;;25.04;51.27;101367.94;5113768;28;20050;-73
2022/05/17 06:14:37;;;;;;;8.50;4.93;;;;;;;25.04;51.25;101367.94;5113548;28;20047;-74
2022/05/17 06:17:05;;;;;;;5.20;4.07;;;;;;;25.03;51.40;101366.22;5114152;28;20036;-74
2022/05/17 06:19:34;;;;;;;6.22;4.68;;;;;;;25.04;51.47;101358.97;5114772;28;20487;-74
2022/05/17 06:22:01;;;;;;;7.45;4.15;;;;;;;25.03;51.46;101359.94;5114443;28;20046;-74
2022/05/17 06:24:28;;;;;;;8.02;5.03;;;;;;;25.04;51.43;101353.56;5113194;28;20049;-74
2022/05/17 06:26:56;;;;;;;6.63;4.25;;;;;;;25.04;51.64;101361.69;5113427;28;20055;-73
2022/05/17 06:29:24;;;;;;;6.05;5.05;;;;;;;25.04;52.01;101357.09;5113240;28;20040;-74
2022/05/17 06:31:51;;;;;;;10.35;6.68;;;;;;;25.04;52.19;101359.81;5114275;28;20066;-74
2022/05/17 06:34:18;;;;;;;12.95;7.60;;;;;;;25.01;51.61;101359.28;5114230;28;20070;-74
2022/05/17 06:36:46;;;;;;;11.75;8.27;;;;;;;24.95;51.46;101352.59;5114418;28;20412;-73
2022/05/17 06:39:20;;;;;;;12.00;7.85;;;;;;;24.87;52.08;101355.25;5114873;28;20050;-72
2022/05/17 06:41:48;;;;;;;10.77;8.02;;;;;;;24.78;52.16;101358.88;5113411;28;20047;-73
2022/05/17 06:44:15;;;;;;;13.18;9.40;;;;;;;24.70;52.62;101356.09;5114290;28;20040;-72
2022/05/17 06:46:42;;;;;;;10.70;8.77;;;;;;;24.60;52.88;101353.47;5111432;28;20482;-73
2022/05/17 06:49:11;;;;;;;12.35;9.05;;;;;;;24.57;53.20;101359.19;5094482;28;20368;-73
2022/05/17 06:51:40;;;;;;;11.40;8.15;;;;;;;24.57;53.19;101346.50;5094582;28;20051;-72
2022/05/17 06:54:09;;;;;;;14.88;8.55;;;;;;;24.54;53.53;101341.41;5094027;28;20050;-74
2022/05/17 06:56:37;;;;;;;13.20;9.63;;;;;;;24.55;53.66;101351.25;5091932;28;20063;-73
2022/05/17 06:59:04;;;;;;;12.88;9.60;;;;;;;24.53;54.07;101347.81;5094336;28;20047;-73
2022/05/17 07:01:32;;;;;;;13.45;10.93;;;;;;;24.50;54.39;101350.81;5094289;28;20044;-72
2022/05/17 07:04:00;;;;;;;14.43;9.52;;;;;;;24.47;54.33;101353.88;5094072;28;20044;-72
2022/05/17 07:06:27;;;;;;;13.70;9.18;;;;;;;24.45;54.65;101355.84;5093179;28;20044;-72
2022/05/17 07:08:55;;;;;;;11.88;9.35;;;;;;;24.45;54.63;101353.16;5093819;28;20392;-72
2022/05/17 07:14:08;;;;;;;15.32;9.88;;;;;;;24.44;55.60;101346.03;5093778;28;20055;-72
2022/05/17 07:16:36;;;;;;;13.63;10.10;;;;;;;24.42;55.78;101357.00;5091589;28;20371;-72
2022/05/17 07:19:04;;;;;;;16.50;10.93;;;;;;;24.40;55.74;101352.78;5093617;28;20047;-73
2022/05/17 07:21:51;;;;;;;15.98;10.40;;;;;;;24.39;56.24;101348.38;5094386;28;20054;-72
2022/05/17 07:24:19;;;;;;;14.75;9.88;;;;;;;24.41;56.59;101352.59;5094401;28;20055;-72
2022/05/17 07:26:46;;;;;;;11.55;9.48;;;;;;;24.41;56.38;101349.06;5091942;28;20052;-73
2022/05/17 07:29:35;;;;;;;15.77;10.18;;;;;;;24.40;56.63;101353.63;5094362;28;20044;-72
2022/05/17 07:32:03;;;;;;;11.27;10.07;;;;;;;24.39;56.97;101351.91;5094171;28;20503;-72
2022/05/17 07:34:33;;;;;;;12.85;9.35;;;;;;;24.38;56.94;101358.31;5094724;28;20048;-73
2022/05/17 07:37:00;;;;;;;16.67;9.73;;;;;;;24.39;57.21;101346.50;5093721;28;20048;-72
2022/05/17 07:39:27;;;;;;;11.23;8.27;;;;;;;24.41;57.20;101351.75;5092586;28;20059;-71
2022/05/17 07:42:02;;;;;;;14.43;9.27;;;;;;;24.42;57.62;101351.59;5094059;28;20040;-73
2022/05/17 07:44:31;;;;;;;12.55;10.18;;;;;;;24.42;57.35;101361.56;5092948;28;20051;-72
2022/05/17 07:46:59;;;;;;;16.85;9.82;;;;;;;24.41;57.84;101354.47;5093859;28;20047;-72
2022/05/17 07:49:27;;;;;;;16.05;10.25;;;;;;;24.40;57.57;101353.63;5093261;28;20048;-73
2022/05/17 07:51:54;;;;;;;16.00;9.05;;;;;;;24.41;57.95;101359.88;5093867;28;20353;-72
2022/05/17 07:54:22;;;;;;;15.68;9.75;;;;;;;24.40;57.85;101360.88;5095729;28;20063;-73
2022/05/17 07:56:49;;;;;;;10.05;9.05;;;;;;;24.40;57.93;101356.31;5097419;28;20036;-73
2022/05/17 07:59:16;;;;;;;16.58;9.90;;;;;;;24.41;57.46;101359.88;5097076;28;20067;-73
2022/05/17 08:01:46;;;;;;;12.48;9.75;;;;;;;24.39;57.33;101356.47;5095514;28;20052;-72
2022/05/17 08:04:13;;;;;;;14.80;9.75;;;;;;;24.36;57.61;101354.88;5097521;28;20063;-73
2022/05/17 08:06:41;;;;;;;12.13;9.73;;;;;;;24.35;57.20;101345.06;5097955;28;20476;-73
2022/05/17 08:09:08;;;;;;;16.83;10.10;;;;;;;24.35;57.23;101349.66;5097424;28;20070;-74
2022/05/17 08:11:36;;;;;;;14.48;9.75;;;;;;;24.35;57.23;101342.38;5096146;28;20381;-72
2022/05/17 08:14:04;;;;;;;13.05;10.30;;;;;;;24.36;57.53;101351.34;5097573;28;20503;-72
2022/05/17 08:16:41;;;;;;;16.83;9.90;;;;;;;24.36;57.26;101345.94;5098185;28;20040;-73
2022/05/17 08:19:09;;;;;;;16.95;10.05;;;;;;;24.36;57.39;101345.94;5097632;28;20055;-74
2022/05/17 08:21:37;;;;;;;14.07;11.23;;;;;;;24.36;57.26;101345.94;5097024;28;20047;-73
2022/05/17 08:24:05;;;;;;;13.35;10.98;;;;;;;24.35;57.07;101355.06;5097524;28;20051;-72
2022/05/17 08:29:19;;;;;;;11.60;10.25;;;;;;;24.33;56.87;101349.78;5095069;28;20411;-73
2022/05/17 08:33:14;;;;;;;15.52;9.63;;;;;;;24.34;56.83;101347.91;5097036;28;20494;-72
2022/05/17 08:34:34;;;;;;;11.90;9.63;;;;;;;24.38;57.57;101354.75;5097296;28;20471;-72
2022/05/17 08:37:02;;;;;;;19.38;11.07;;;;;;;24.39;57.59;101345.66;5095174;28;20047;-71
2022/05/17 08:39:29;;;;;;;13.68;10.35;;;;;;;24.40;57.81;101347.34;5096809;28;20043;-72
2022/05/17 08:42:05;;;;;;;12.63;10.18;;;;;;;24.40;57.85;101345.50;5097026;28;20114;-72
2022/05/17 08:44:43;;;;;;;12.82;10.18;;;;;;;24.41;57.95;101346.34;5096328;28;20059;-73
2022/05/17 08:47:17;;;;;;;14.50;10.98;;;;;;;24.42;57.85;101339.91;5095456;28;20048;-73
2022/05/17 08:50:09;;;;;;;15.73;11.40;;;;;;;24.44;58.08;101343.34;5096258;28;20040;-73
2022/05/17 08:52:39;;;;;;;15.30;10.25;;;;;;;24.44;57.94;101346.03;5096921;28;20048;-73
2022/05/17 08:55:29;;;;;;;11.68;9.80;;;;;;;24.44;57.57;101339.78;5096819;28;20044;-72
2022/05/17 08:58:08;;;;;;;13.60;9.73;;;;;;;24.46;57.29;101348.59;5096584;28;20043;-72
2022/05/17 09:00:42;;;;;;;13.93;10.30;;;;;;;24.48;58.05;101328.50;5095614;28;20044;-73
2022/05/17 09:03:42;;;;;;;17.10;10.60;;;;;;;24.50;58.06;101336.44;5096754;28;20051;-72
2022/05/17 09:06:31;;;;;;;14.55;10.07;;;;;;;24.50;57.58;101326.47;5096073;28;20043;-72
2022/05/17 09:09:07;;;;;;;10.40;9.38;;;;;;;24.52;56.59;101332.59;5095203;28;20047;-72
2022/05/17 09:11:45;;;;;;;13.90;9.07;;;;;;;24.54;56.86;101327.84;5095964;28;20388;-72
2022/05/17 09:14:15;;;;;;;14.90;9.80;;;;;;;24.55;56.72;101328.72;5094158;28;20055;-73
2022/05/17 09:16:59;;;;;;;12.27;8.00;;;;;;;24.58;56.75;101325.69;5096157;28;20048;-73
2022/05/17 09:19:27;;;;;;;11.55;8.25;;;;;;;24.60;56.54;101324.56;5094136;28;20484;-73
2022/05/17 09:21:58;;;;;;;9.57;8.45;;;;;;;24.63;56.67;101326.06;5095623;28;20067;-72
2022/05/17 09:24:35;;;;;;;11.10;8.75;;;;;;;24.64;56.16;101325.94;5096522;28;20048;-73
2022/05/17 09:27:09;;;;;;;11.40;8.65;;;;;;;24.65;56.03;101321.38;5095460;28;20045;-73
2022/05/17 09:29:42;;;;;;;12.23;8.02;;;;;;;24.65;55.54;101316.81;5095986;28;20052;-73
2022/05/17 09:32:12;;;;;;;10.50;9.00;;;;;;;24.67;55.63;101322.06;5095694;28;20055;-72
2022/05/17 09:34:45;;;;;;;12.85;10.13;;;;;;;24.68;55.99;101323.78;5094910;28;20070;-73
2022/05/17 09:37:19;;;;;;;13.25;9.23;;;;;;;24.69;55.89;101319.22;5094388;28;20484;-73
2022/05/17 09:39:53;;;;;;;13.38;9.68;;;;;;;24.70;56.17;101318.19;5096095;28;20403;-73
2022/05/17 09:42:30;;;;;;;11.57;9.45;;;;;;;24.69;55.58;101311.94;5095680;28;20048;-73
2022/05/17 09:45:02;;;;;;;10.27;9.18;;;;;;;24.71;54.95;101315.31;5095406;28;20048;-73
2022/05/17 09:47:33;;;;;;;12.25;9.52;;;;;;;24.72;54.99;101311.63;5095596;28;20468;-73
2022/05/17 09:53:06;;;;;;;12.45;9.27;;;;;;;24.73;55.14;101309.78;5095432;28;20067;-72
2022/05/17 09:55:35;;;;;;;13.57;9.52;;;;;;;24.73;55.59;101310.63;5095303;28;20048;-73
2022/05/17 09:58:04;;;;;;;12.90;9.73;;;;;;;24.74;55.71;101311.47;5095489;28;20100;-73
2022/05/17 10:00:41;;;;;;;12.60;9.35;;;;;;;24.75;56.12;101300.47;5095345;28;20052;-72
2022/05/17 10:03:14;;;;;;;11.02;9.32;;;;;;;24.78;55.85;101302.88;5095491;28;20483;-73
2022/05/17 10:05:49;;;;;;;11.88;8.93;;;;;;;24.79;55.88;101303.72;5095533;28;20048;-74
2022/05/17 10:08:19;;;;;;;12.90;9.70;;;;;;;24.80;56.03;101300.88;5096581;28;20047;-73
2022/05/17 10:11:02;;;;;;;11.75;9.10;;;;;;;24.81;55.54;101293.59;5095798;28;20371;-73
2022/05/17 10:13:42;;;;;;;13.52;9.70;;;;;;;24.82;55.85;101298.00;5095155;28;20055;-74
2022/05/17 10:16:17;;;;;;;11.73;9.13;;;;;;;24.83;55.72;101292.44;5094517;28;20048;-74
2022/05/17 10:18:58;;;;;;;10.88;9.77;;;;;;;24.84;55.39;101287.88;5096172;28;20051;-74
2022/05/17 10:21:38;;;;;;;10.27;8.80;;;;;;;24.85;55.54;101281.44;5093574;28;20055;-74
2022/05/17 10:24:17;;;;;;;14.10;9.13;;;;;;;24.86;55.61;101280.44;5095265;28;20055;-74
2022/05/17 10:27:02;;;;;;;10.48;8.27;;;;;;;24.88;55.66;101281.97;5094952;28;20127;-73
2022/05/17 10:29:38;;;;;;;10.88;8.48;;;;;;;24.89;55.55;101275.53;5095309;28;20052;-72
2022/05/17 10:32:19;;;;;;;16.48;8.80;;;;;;;24.91;55.52;101275.38;5094875;28;20047;-72
2022/05/17 10:35:18;;;;;;;9.15;6.78;;;;;;;24.93;55.60;101273.38;5094468;28;20051;-72
2022/05/17 10:38:00;;;;;;;9.45;7.30;;;;;;;24.95;55.42;101270.50;5094742;28;20040;-72
2022/05/17 10:40:34;;;;;;;8.10;7.30;;;;;;;24.97;55.62;101268.50;5094174;28;20043;-73
2022/05/17 10:43:02;;;;;;;11.68;7.22;;;;;;;24.98;55.46;101271.03;5095346;28;20052;-72
2022/05/17 10:45:33;;;;;;;9.32;7.63;;;;;;;24.98;55.63;101271.03;5094452;28;20040;-72
2022/05/17 10:48:50;;;;;;;10.85;7.97;;;;;;;25.00;55.46;101273.59;5094534;28;20406;-72
2022/05/17 10:51:35;;;;;;;9.25;7.45;;;;;;;25.01;55.64;101267.16;5051568;28;20060;-73
2022/05/17 10:54:20;;;;;;;8.82;7.75;;;;;;;25.01;55.56;101259.88;5051796;28;20048;-74
2022/05/17 10:57:12;;;;;;;10.90;7.68;;;;;;;25.03;55.53;101257.84;5052542;28;20049;-72
2022/05/17 10:59:55;;;;;;;10.20;7.18;;;;;;;25.04;55.53;101256.03;5035851;28;20051;-72
2022/05/17 11:02:25;;;;;;;7.53;6.80;;;;;;;25.04;55.49;101254.16;5051889;28;20064;-72
2022/05/17 11:05:02;;;;;;;7.55;6.68;;;;;;;25.05;55.54;101241.47;5052179;28;20080;-73
2022/05/17 11:07:58;;;;;;;8.68;6.72;;;;;;;25.06;55.42;101238.59;5051779;28;20060;-73
2022/05/17 11:10:34;;;;;;;9.02;7.63;;;;;;;25.06;55.69;101246.72;5051251;28;20548;-73
2022/05/17 11:13:22;;;;;;;8.27;7.22;;;;;;;25.05;55.63;101234.19;5051630;28;20056;-72
2022/05/17 11:15:56;;;;;;;7.65;6.78;;;;;;;25.06;55.48;101230.47;5051968;28;20060;-73
2022/05/17 11:18:48;;;;;;;9.57;7.03;;;;;;;25.07;55.55;101234.84;5051643;28;20072;-73
2022/05/17 11:21:48;;;;;;;8.43;7.00;;;;;;;25.09;55.50;101232.88;5051636;28;20065;-73
2022/05/17 11:24:34;;;;;;;10.00;6.78;;;;;;;25.10;55.37;101225.59;5048309;28;20056;-73
2022/05/17 11:27:19;;;;;;;7.43;6.47;;;;;;;25.11;55.30;101222.72;5057556;28;20392;-73
2022/05/17 11:30:02;;;;;;;9.98;7.05;;;;;;;25.12;55.44;101224.44;5092718;28;20044;-72
2022/05/17 11:32:36;;;;;;;6.72;5.88;;;;;;;25.13;55.27;101209.88;5094344;28;20145;-73
2022/05/17 11:35:24;;;;;;;10.73;6.20;;;;;;;25.15;55.17;101217.84;5093850;28;20048;-72
2022/05/17 11:37:54;;;;;;;7.40;6.10;;;;;;;25.15;55.34;101213.25;5093065;28;20040;-72
2022/05/17 11:40:47;;;;;;;7.88;6.10;;;;;;;25.19;55.25;101215.66;5093438;28;20070;-73
2022/05/17 11:46:30;;;;;;;8.75;6.40;;;;;;;25.20;55.40;101209.22;5093172;28;20048;-72
2022/05/17 11:49:01;;;;;;;7.82;6.68;;;;;;;25.22;55.43;101208.06;5092814;28;20039;-72
2022/05/17 11:51:36;;;;;;;7.55;6.80;;;;;;;25.22;55.67;101202.63;5093229;28;20047;-72
2022/05/17 11:54:08;;;;;;;9.57;6.40;;;;;;;25.24;55.90;101194.34;5093622;28;20044;-72
2022/05/17 11:56:38;;;;;;;8.20;6.90;;;;;;;25.25;55.86;101196.91;5093588;28;20044;-73
2022/05/17 11:59:12;;;;;;;8.20;7.10;;;;;;;25.26;56.84;101192.31;5091275;28;20408;-72